Search METAR Data

METAR Data for ENEV:

ENEV 131550Z 35011KT CAVOK 15/08 Q1013 NOSIG RMK WIND 1400FT 01013KT